Time;durP1;ratioP1;P1;durP2;ratioP2;P2;SDS_P1;SDS_P2;PMS_P1;PMS_P2;Temp;Humidity;BMP_temperature;BMP_pressure;BME280_temperature;BME280_humidity;BME280_pressure;Samples;Min_cycle;Max_cycle;Signal;HPM_P1;HPM_P2
2023/07/04 00:01:56;;;;;;;;;;;15.30;99.90;;;;;;7298308;19;8944;-69
2023/07/04 00:04:29;;;;;;;;;;;15.30;99.90;;;;;;7300172;19;9514;-69
2023/07/04 00:07:04;;;;;;;;;;;15.20;99.90;;;;;;7299621;19;10154;-69
2023/07/04 00:09:33;;;;;;;;;;;15.00;99.90;;;;;;7306396;19;9349;-69
2023/07/04 00:12:02;;;;;;;;;;;15.00;99.90;;;;;;7305575;19;9479;-69
2023/07/04 00:14:32;;;;;;;;;;;14.90;99.90;;;;;;7308505;19;9308;-69
2023/07/04 00:17:01;;;;;;;;;;;14.80;99.90;;;;;;7303989;19;9279;-69
2023/07/04 00:19:32;;;;;;;;;;;14.60;99.90;;;;;;7309938;19;9344;-69
2023/07/04 00:22:04;;;;;;;;;;;14.50;99.90;;;;;;7305562;19;10915;-69
2023/07/04 00:24:33;;;;;;;;;;;14.40;99.90;;;;;;7305568;19;8997;-69
2023/07/04 00:27:02;;;;;;;;;;;14.50;99.90;;;;;;7302591;19;11871;-69
2023/07/04 00:29:31;;;;;;;;;;;14.40;99.90;;;;;;7302675;19;9795;-69
2023/07/04 00:32:02;;;;;;;;;;;14.40;99.90;;;;;;7300174;19;9244;-69
2023/07/04 00:34:34;;;;;;;;;;;14.40;99.90;;;;;;7303685;19;9162;-69
2023/07/04 00:37:03;;;;;;;;;;;14.20;99.90;;;;;;7300253;19;9630;-69
2023/07/04 00:39:32;;;;;;;;;;;14.10;99.90;;;;;;7305157;19;9408;-69
2023/07/04 00:42:04;;;;;;;;;;;14.00;99.90;;;;;;7303314;19;9387;-69
2023/07/04 00:44:37;;;;;;;;;;;13.90;99.90;;;;;;7300093;19;9474;-69
2023/07/04 00:47:21;;;;;;;;;;;13.90;99.90;;;;;;7305259;19;10114;-69
2023/07/04 00:50:02;;;;;;;;;;;13.90;99.90;;;;;;7304493;19;9390;-69
2023/07/04 00:52:37;;;;;;;;;;;13.80;99.90;;;;;;7303345;19;10805;-68
2023/07/04 00:55:12;;;;;;;;;;;13.90;99.90;;;;;;7304093;19;9760;-69
2023/07/04 00:57:42;;;;;;;;;;;13.70;99.90;;;;;;7303467;19;11100;-69
2023/07/04 01:00:17;;;;;;;;;;;13.50;99.90;;;;;;7304062;19;9340;-69
2023/07/04 01:02:49;;;;;;;;;;;13.50;99.90;;;;;;7305104;19;9233;-68
2023/07/04 01:05:33;;;;;;;;;;;13.50;99.90;;;;;;7303947;19;9494;-68
2023/07/04 01:08:08;;;;;;;;;;;13.50;99.90;;;;;;7303455;19;9281;-69
2023/07/04 01:10:43;;;;;;;;;;;13.40;99.90;;;;;;7302846;19;9301;-69
2023/07/04 01:13:32;;;;;;;;;;;13.40;99.90;;;;;;7298821;19;9427;-69
2023/07/04 01:16:01;;;;;;;;;;;13.30;99.90;;;;;;7302234;19;9229;-69
2023/07/04 01:18:31;;;;;;;;;;;13.50;99.90;;;;;;7304743;19;9355;-69
2023/07/04 01:21:05;;;;;;;;;;;13.60;99.90;;;;;;7302432;19;9351;-68
2023/07/04 01:23:45;;;;;;;;;;;13.60;99.90;;;;;;7303068;19;8944;-68
2023/07/04 01:26:31;;;;;;;;;;;13.60;99.90;;;;;;7304061;19;9572;-69
2023/07/04 01:29:04;;;;;;;;;;;13.50;99.90;;;;;;7302603;19;9520;-69
2023/07/04 01:31:35;;;;;;;;;;;13.40;99.90;;;;;;7300336;19;9535;-69
2023/07/04 01:34:06;;;;;;;;;;;13.40;99.90;;;;;;7303176;19;9396;-69
2023/07/04 01:36:40;;;;;;;;;;;13.30;99.90;;;;;;7298372;19;10159;-69
2023/07/04 01:39:15;;;;;;;;;;;13.20;99.90;;;;;;7301235;19;9456;-69
2023/07/04 01:41:49;;;;;;;;;;;13.10;99.90;;;;;;7302879;19;9280;-69
2023/07/04 01:44:24;;;;;;;;;;;13.00;99.90;;;;;;7299651;19;9348;-68
2023/07/04 01:46:54;;;;;;;;;;;13.10;99.90;;;;;;7303330;19;9259;-69
2023/07/04 01:49:23;;;;;;;;;;;13.10;99.90;;;;;;7301957;19;9213;-68
2023/07/04 01:51:52;;;;;;;;;;;13.10;99.90;;;;;;7302216;19;9282;-69
2023/07/04 01:54:21;;;;;;;;;;;13.00;99.90;;;;;;7300600;19;10095;-69
2023/07/04 01:56:53;;;;;;;;;;;12.90;99.90;;;;;;7301325;19;9832;-69
2023/07/04 01:59:23;;;;;;;;;;;12.80;99.90;;;;;;7303060;19;10066;-69
2023/07/04 02:01:53;;;;;;;;;;;12.70;99.90;;;;;;7300875;19;9252;-68
2023/07/04 02:04:22;;;;;;;;;;;12.60;99.90;;;;;;7301652;19;10078;-69
2023/07/04 02:06:51;;;;;;;;;;;12.60;99.90;;;;;;7297447;19;11054;-69
2023/07/04 02:09:20;;;;;;;;;;;12.50;99.90;;;;;;7300812;19;10130;-69
2023/07/04 02:11:51;;;;;;;;;;;12.50;99.90;;;;;;7300192;19;9493;-70
2023/07/04 02:14:21;;;;;;;;;;;12.40;99.90;;;;;;7300866;19;9504;-70
2023/07/04 02:16:51;;;;;;;;;;;12.40;99.90;;;;;;7299313;19;9217;-68
2023/07/04 02:19:20;;;;;;;;;;;12.40;99.90;;;;;;7300830;19;10296;-68
2023/07/04 02:21:50;;;;;;;;;;;12.40;99.90;;;;;;7296918;19;9226;-69
2023/07/04 02:24:19;;;;;;;;;;;12.40;99.90;;;;;;7302546;19;9346;-68
2023/07/04 02:26:49;;;;;;;;;;;12.40;99.90;;;;;;7298865;19;9338;-68
2023/07/04 02:29:20;;;;;;;;;;;12.40;99.90;;;;;;7298820;19;9253;-69
2023/07/04 02:31:49;;;;;;;;;;;12.40;99.90;;;;;;7302615;19;8944;-68
2023/07/04 02:34:18;;;;;;;;;;;12.50;99.90;;;;;;7300703;19;9370;-68
2023/07/04 02:36:47;;;;;;;;;;;12.50;99.90;;;;;;7298020;19;11130;-69
2023/07/04 02:39:16;;;;;;;;;;;12.40;99.90;;;;;;7298506;19;9225;-69
2023/07/04 02:41:46;;;;;;;;;;;12.40;99.90;;;;;;7298571;19;9463;-69
2023/07/04 02:44:15;;;;;;;;;;;12.40;99.90;;;;;;7298592;19;9249;-69
2023/07/04 02:46:46;;;;;;;;;;;12.50;99.90;;;;;;7302184;19;9241;-69
2023/07/04 02:49:16;;;;;;;;;;;12.60;99.90;;;;;;7300608;19;10161;-68
2023/07/04 02:51:45;;;;;;;;;;;12.60;99.90;;;;;;7300356;19;8945;-69
2023/07/04 02:54:15;;;;;;;;;;;12.60;99.90;;;;;;7300598;19;9399;-68
2023/07/04 02:56:44;;;;;;;;;;;12.60;99.90;;;;;;7302143;19;9242;-68
2023/07/04 02:59:13;;;;;;;;;;;12.60;99.90;;;;;;7298837;19;9306;-68
2023/07/04 03:01:43;;;;;;;;;;;12.60;99.90;;;;;;7300508;19;9272;-68
2023/07/04 03:04:14;;;;;;;;;;;12.70;99.90;;;;;;7299229;19;10275;-69
2023/07/04 03:06:43;;;;;;;;;;;12.80;99.90;;;;;;7297017;19;9284;-69
2023/07/04 03:09:12;;;;;;;;;;;12.80;99.90;;;;;;7295650;19;9416;-68
2023/07/04 03:11:41;;;;;;;;;;;12.80;99.90;;;;;;7300195;19;9477;-69
2023/07/04 03:14:11;;;;;;;;;;;12.90;99.90;;;;;;7296846;19;9250;-69
2023/07/04 03:16:40;;;;;;;;;;;13.00;99.90;;;;;;7302236;19;8944;-68
2023/07/04 03:19:09;;;;;;;;;;;12.90;99.90;;;;;;7304212;19;9060;-69
2023/07/04 03:21:41;;;;;;;;;;;13.00;99.90;;;;;;7300488;19;9281;-69
2023/07/04 03:24:10;;;;;;;;;;;13.20;99.90;;;;;;7296564;19;11714;-69
2023/07/04 03:26:40;;;;;;;;;;;13.30;99.90;;;;;;7301428;19;10666;-69
2023/07/04 03:29:09;;;;;;;;;;;13.60;99.90;;;;;;7299596;19;9235;-69
2023/07/04 03:31:38;;;;;;;;;;;13.70;99.90;;;;;;7300167;19;9258;-68
2023/07/04 03:34:08;;;;;;;;;;;13.70;99.90;;;;;;7296963;19;9425;-69
2023/07/04 03:36:39;;;;;;;;;;;13.80;99.90;;;;;;7294304;19;9364;-69
2023/07/04 03:39:11;;;;;;;;;;;13.90;99.90;;;;;;7298711;19;12310;-69
2023/07/04 03:41:40;;;;;;;;;;;14.00;99.90;;;;;;7305949;19;9233;-69
2023/07/04 03:44:09;;;;;;;;;;;13.90;99.90;;;;;;7304243;19;9479;-69
2023/07/04 03:46:38;;;;;;;;;;;13.90;99.90;;;;;;7307649;19;9548;-68
2023/07/04 03:49:07;;;;;;;;;;;13.90;99.90;;;;;;7306667;19;9363;-68
2023/07/04 03:51:36;;;;;;;;;;;13.90;99.90;;;;;;7304639;19;8945;-69
2023/07/04 03:54:06;;;;;;;;;;;13.90;99.90;;;;;;7303632;19;9302;-69
2023/07/04 03:56:37;;;;;;;;;;;13.90;99.90;;;;;;7305431;19;9024;-68
2023/07/04 03:59:06;;;;;;;;;;;13.90;99.90;;;;;;7307007;19;9288;-69
2023/07/04 04:01:35;;;;;;;;;;;13.90;99.90;;;;;;7308682;19;9331;-69
2023/07/04 04:04:04;;;;;;;;;;;13.90;99.90;;;;;;7305512;19;9344;-69
2023/07/04 04:06:33;;;;;;;;;;;14.00;99.90;;;;;;7302837;19;9249;-68
2023/07/04 04:09:03;;;;;;;;;;;14.10;99.90;;;;;;7303846;19;9277;-69
2023/07/04 04:11:32;;;;;;;;;;;14.10;99.90;;;;;;7308652;19;10236;-69
2023/07/04 04:14:03;;;;;;;;;;;14.10;99.90;;;;;;7304925;19;9844;-69
2023/07/04 04:16:33;;;;;;;;;;;14.00;99.90;;;;;;7309352;19;9250;-69
2023/07/04 04:19:02;;;;;;;;;;;13.90;99.90;;;;;;7311796;19;9131;-69
2023/07/04 04:21:31;;;;;;;;;;;13.90;99.90;;;;;;7307448;19;9366;-69
2023/07/04 04:24:00;;;;;;;;;;;13.90;99.90;;;;;;7307069;19;9605;-69
2023/07/04 04:26:32;;;;;;;;;;;13.90;99.90;;;;;;7307511;19;12990;-69
2023/07/04 04:29:04;;;;;;;;;;;13.90;99.90;;;;;;7307525;19;10611;-69
2023/07/04 04:31:37;;;;;;;;;;;14.00;99.90;;;;;;7309107;19;9268;-69
2023/07/04 04:34:06;;;;;;;;;;;14.00;99.90;;;;;;7304001;19;11653;-69
2023/07/04 04:36:36;;;;;;;;;;;14.00;99.90;;;;;;7301706;19;9400;-69
2023/07/04 04:39:05;;;;;;;;;;;14.00;99.90;;;;;;7305199;19;10130;-70
2023/07/04 04:41:36;;;;;;;;;;;14.00;99.90;;;;;;7304728;19;9394;-68
2023/07/04 04:44:08;;;;;;;;;;;14.00;99.90;;;;;;7302815;19;9395;-69
2023/07/04 04:46:40;;;;;;;;;;;14.00;99.90;;;;;;7308311;19;9241;-69
2023/07/04 04:49:10;;;;;;;;;;;14.10;99.90;;;;;;7305857;19;9371;-69
2023/07/04 04:51:40;;;;;;;;;;;14.10;99.90;;;;;;7302440;19;8944;-69
2023/07/04 04:54:09;;;;;;;;;;;14.20;99.90;;;;;;7305313;19;9254;-69
2023/07/04 04:56:40;;;;;;;;;;;14.20;99.90;;;;;;7307250;19;11814;-69
2023/07/04 04:59:11;;;;;;;;;;;14.30;99.90;;;;;;7302070;19;10985;-70
2023/07/04 05:01:40;;;;;;;;;;;14.50;99.90;;;;;;7303364;19;11000;-69
2023/07/04 05:04:09;;;;;;;;;;;14.80;99.90;;;;;;7305602;19;9229;-69
2023/07/04 05:06:39;;;;;;;;;;;15.00;99.90;;;;;;7305449;19;9400;-69
2023/07/04 05:09:08;;;;;;;;;;;15.20;99.90;;;;;;7306115;19;9817;-69
2023/07/04 05:11:37;;;;;;;;;;;15.20;99.90;;;;;;7306466;19;9316;-68
2023/07/04 05:14:08;;;;;;;;;;;15.30;99.90;;;;;;7305429;19;9416;-69
2023/07/04 05:16:40;;;;;;;;;;;15.20;99.90;;;;;;7306202;19;9270;-69
2023/07/04 05:19:09;;;;;;;;;;;15.30;99.90;;;;;;7308520;19;9238;-69
2023/07/04 05:21:38;;;;;;;;;;;15.30;99.90;;;;;;7301000;19;9415;-69
2023/07/04 05:24:08;;;;;;;;;;;15.20;99.90;;;;;;7304173;19;9182;-68
2023/07/04 05:26:38;;;;;;;;;;;15.20;99.90;;;;;;7300832;19;8996;-69
2023/07/04 05:29:08;;;;;;;;;;;15.10;99.90;;;;;;7304094;19;11924;-70
2023/07/04 05:31:39;;;;;;;;;;;15.10;99.90;;;;;;7297607;19;8944;-70
2023/07/04 05:34:08;;;;;;;;;;;15.10;99.90;;;;;;7296998;19;11190;-69
2023/07/04 05:36:38;;;;;;;;;;;15.00;99.90;;;;;;7308082;19;8944;-69
2023/07/04 05:39:08;;;;;;;;;;;15.00;99.90;;;;;;7304061;19;9523;-69
2023/07/04 05:41:39;;;;;;;;;;;15.00;99.90;;;;;;7304614;19;9552;-69
2023/07/04 05:44:11;;;;;;;;;;;15.10;99.90;;;;;;7302692;19;8945;-69
2023/07/04 05:46:42;;;;;;;;;;;15.20;99.90;;;;;;7304694;19;9546;-69
2023/07/04 05:49:11;;;;;;;;;;;15.30;99.90;;;;;;7303905;19;9507;-68
2023/07/04 05:51:40;;;;;;;;;;;15.40;99.90;;;;;;7305245;19;8944;-69
2023/07/04 05:54:10;;;;;;;;;;;15.60;99.90;;;;;;7298537;19;10632;-69
2023/07/04 05:56:39;;;;;;;;;;;15.70;99.90;;;;;;7303525;19;9350;-74
2023/07/04 05:59:08;;;;;;;;;;;15.80;99.90;;;;;;7302019;19;9285;-69
2023/07/04 06:01:40;;;;;;;;;;;15.80;99.90;;;;;;7297631;19;9241;-69
2023/07/04 06:04:14;;;;;;;;;;;15.90;99.90;;;;;;7297739;19;9435;-69
2023/07/04 06:06:45;;;;;;;;;;;15.90;99.90;;;;;;7300154;19;10312;-73
2023/07/04 06:09:17;;;;;;;;;;;15.80;99.90;;;;;;7299813;19;9522;-70
2023/07/04 06:11:49;;;;;;;;;;;15.80;99.90;;;;;;7302931;19;9467;-69
2023/07/04 06:14:20;;;;;;;;;;;15.90;99.90;;;;;;7301033;19;9226;-73
2023/07/04 06:16:49;;;;;;;;;;;15.90;99.90;;;;;;7303209;19;9521;-72
2023/07/04 06:19:20;;;;;;;;;;;16.00;99.90;;;;;;7305906;19;9424;-70
2023/07/04 06:21:50;;;;;;;;;;;16.10;99.90;;;;;;7305129;19;9256;-70
2023/07/04 06:24:20;;;;;;;;;;;16.30;99.90;;;;;;7301945;19;9496;-71
2023/07/04 06:26:50;;;;;;;;;;;16.40;99.90;;;;;;7296741;19;9458;-68
2023/07/04 06:29:19;;;;;;;;;;;16.60;99.90;;;;;;7298922;19;9401;-68
2023/07/04 06:31:51;;;;;;;;;;;16.60;99.90;;;;;;7297514;19;10842;-68
2023/07/04 06:34:22;;;;;;;;;;;16.70;99.90;;;;;;7297115;19;9432;-68
2023/07/04 06:36:51;;;;;;;;;;;16.80;99.90;;;;;;7292990;19;8945;-69
2023/07/04 06:39:21;;;;;;;;;;;17.00;99.90;;;;;;7298456;19;10151;-68
2023/07/04 06:41:53;;;;;;;;;;;17.10;99.90;;;;;;7297445;19;9162;-68
2023/07/04 06:44:22;;;;;;;;;;;17.20;99.90;;;;;;7298140;19;9004;-68
2023/07/04 06:46:51;;;;;;;;;;;17.40;99.90;;;;;;7295558;19;10149;-68
2023/07/04 06:49:23;;;;;;;;;;;17.60;99.90;;;;;;7298820;19;9278;-68
2023/07/04 06:51:52;;;;;;;;;;;17.70;99.90;;;;;;7296947;19;9372;-68
2023/07/04 06:54:22;;;;;;;;;;;17.70;99.90;;;;;;7296267;19;10135;-68
2023/07/04 06:56:51;;;;;;;;;;;17.70;99.90;;;;;;7296110;19;8948;-68
2023/07/04 06:59:20;;;;;;;;;;;17.80;99.90;;;;;;7298237;19;10051;-68
2023/07/04 07:01:49;;;;;;;;;;;17.80;99.90;;;;;;7298756;19;9449;-68
2023/07/04 07:04:18;;;;;;;;;;;17.90;99.90;;;;;;7300446;19;9609;-68
2023/07/04 07:06:51;;;;;;;;;;;18.00;99.90;;;;;;7301455;19;9441;-68
2023/07/04 07:09:20;;;;;;;;;;;18.20;99.90;;;;;;7295189;19;8944;-68
2023/07/04 07:11:49;;;;;;;;;;;18.20;99.90;;;;;;7299180;19;9113;-68
2023/07/04 07:14:18;;;;;;;;;;;18.20;99.90;;;;;;7288826;19;9626;-68
2023/07/04 07:16:47;;;;;;;;;;;18.20;99.90;;;;;;7303628;19;9828;-67
2023/07/04 07:19:18;;;;;;;;;;;18.10;99.90;;;;;;7311737;19;11275;-67
2023/07/04 07:21:50;;;;;;;;;;;18.20;99.90;;;;;;7289731;19;9507;-68
2023/07/04 07:24:19;;;;;;;;;;;18.30;99.90;;;;;;7298255;19;9273;-67
2023/07/04 07:26:49;;;;;;;;;;;18.50;99.90;;;;;;7307119;19;9092;-68
2023/07/04 07:29:18;;;;;;;;;;;18.60;99.90;;;;;;7306660;19;10615;-67
2023/07/04 07:31:47;;;;;;;;;;;18.50;99.90;;;;;;7308488;19;10149;-68
2023/07/04 07:34:17;;;;;;;;;;;18.40;99.90;;;;;;7301656;19;9246;-67
2023/07/04 07:36:49;;;;;;;;;;;18.30;99.90;;;;;;7305582;19;9264;-68
2023/07/04 07:39:19;;;;;;;;;;;18.30;99.90;;;;;;7301659;19;8948;-68
2023/07/04 07:41:50;;;;;;;;;;;18.40;99.90;;;;;;7307495;19;9265;-67
2023/07/04 07:44:20;;;;;;;;;;;18.50;99.90;;;;;;7304214;19;10214;-67
2023/07/04 07:46:49;;;;;;;;;;;18.60;99.90;;;;;;7307796;19;9258;-67
2023/07/04 07:49:18;;;;;;;;;;;18.70;99.90;;;;;;7303996;19;9264;-67
2023/07/04 07:51:49;;;;;;;;;;;18.80;99.90;;;;;;7306599;19;10150;-67
2023/07/04 07:54:19;;;;;;;;;;;18.90;99.90;;;;;;7301683;19;10234;-67
2023/07/04 07:56:48;;;;;;;;;;;19.00;99.90;;;;;;7306077;19;9221;-67
2023/07/04 07:59:17;;;;;;;;;;;19.10;99.90;;;;;;7303279;19;9000;-68
2023/07/04 08:01:47;;;;;;;;;;;19.30;99.90;;;;;;7308379;19;9201;-67
2023/07/04 08:04:18;;;;;;;;;;;19.40;99.90;;;;;;7305807;19;9249;-67
2023/07/04 08:06:51;;;;;;;;;;;19.40;99.00;;;;;;7305142;19;9364;-68
2023/07/04 08:09:21;;;;;;;;;;;19.40;98.90;;;;;;7300155;19;9603;-68
2023/07/04 08:11:51;;;;;;;;;;;19.30;99.00;;;;;;7301675;19;9597;-68
2023/07/04 08:14:21;;;;;;;;;;;19.30;98.90;;;;;;7294776;19;9368;-68
2023/07/04 08:16:53;;;;;;;;;;;19.30;99.10;;;;;;7301993;19;9095;-67
2023/07/04 08:19:25;;;;;;;;;;;19.20;99.20;;;;;;7307861;19;9257;-67
2023/07/04 08:21:57;;;;;;;;;;;19.40;98.80;;;;;;7305869;19;9279;-67
2023/07/04 08:24:27;;;;;;;;;;;19.30;98.80;;;;;;7304467;19;9292;-67
2023/07/04 08:26:58;;;;;;;;;;;19.30;99.10;;;;;;7304379;19;9273;-67
2023/07/04 08:29:27;;;;;;;;;;;19.40;98.80;;;;;;7305876;19;9503;-68
2023/07/04 08:31:56;;;;;;;;;;;19.40;98.30;;;;;;7305875;19;9201;-68
2023/07/04 08:34:25;;;;;;;;;;;19.60;97.80;;;;;;7304370;19;9238;-67
2023/07/04 08:36:57;;;;;;;;;;;19.70;97.40;;;;;;7304264;19;10650;-67
2023/07/04 08:39:27;;;;;;;;;;;19.70;97.00;;;;;;7302011;19;10814;-67
2023/07/04 08:42:02;;;;;;;;;;;19.60;97.10;;;;;;7302731;19;9462;-67
2023/07/04 08:44:37;;;;;;;;;;;19.60;97.20;;;;;;7304690;19;8944;-67
2023/07/04 08:47:07;;;;;;;;;;;19.50;97.40;;;;;;7304046;19;9579;-67
2023/07/04 08:49:43;;;;;;;;;;;19.50;97.30;;;;;;7303515;19;12836;-67
2023/07/04 08:52:23;;;;;;;;;;;19.50;97.60;;;;;;7302858;19;9353;-67
2023/07/04 08:54:53;;;;;;;;;;;19.50;97.60;;;;;;7305759;19;9229;-67
2023/07/04 08:57:37;;;;;;;;;;;19.60;97.00;;;;;;7308001;19;8964;-68
2023/07/04 09:00:13;;;;;;;;;;;19.60;96.90;;;;;;7323633;19;9490;-67
2023/07/04 09:03:05;;;;;;;;;;;19.50;97.30;;;;;;7311280;19;9524;-68
2023/07/04 09:05:47;;;;;;;;;;;19.60;96.80;;;;;;7301602;19;11179;-67
2023/07/04 09:08:34;;;;;;;;;;;19.60;96.10;;;;;;7297164;19;9491;-67
2023/07/04 09:11:08;;;;;;;;;;;19.60;95.40;;;;;;7296453;19;9289;-68
2023/07/04 09:13:41;;;;;;;;;;;19.70;94.70;;;;;;7306598;19;9262;-67
2023/07/04 09:16:15;;;;;;;;;;;19.60;95.20;;;;;;7298250;19;9222;-67
2023/07/04 09:18:52;;;;;;;;;;;19.70;94.50;;;;;;7308257;19;9233;-67
2023/07/04 09:21:24;;;;;;;;;;;19.80;94.40;;;;;;7294288;19;9326;-67
2023/07/04 09:23:59;;;;;;;;;;;19.90;93.90;;;;;;7303939;19;9310;-67
2023/07/04 09:26:37;;;;;;;;;;;20.00;93.50;;;;;;7297654;19;10250;-67
2023/07/04 09:29:08;;;;;;;;;;;20.00;92.70;;;;;;7298370;19;10838;-67
2023/07/04 09:31:43;;;;;;;;;;;20.00;92.10;;;;;;7302094;19;9005;-67
2023/07/04 09:34:17;;;;;;;;;;;20.00;92.10;;;;;;7302039;19;9304;-67
2023/07/04 09:36:48;;;;;;;;;;;20.00;92.10;;;;;;7306038;19;9466;-68
2023/07/04 09:39:20;;;;;;;;;;;20.00;91.70;;;;;;7297315;19;9264;-67
2023/07/04 09:41:59;;;;;;;;;;;20.10;91.10;;;;;;7303016;19;9244;-67
2023/07/04 09:44:32;;;;;;;;;;;20.10;90.30;;;;;;7300973;19;9265;-67
2023/07/04 09:47:05;;;;;;;;;;;20.00;90.40;;;;;;7303993;19;10185;-68
2023/07/04 09:49:36;;;;;;;;;;;20.20;90.80;;;;;;7305467;19;9250;-67
2023/07/04 09:52:07;;;;;;;;;;;20.30;90.80;;;;;;7302497;19;9490;-68
2023/07/04 09:54:41;;;;;;;;;;;20.40;90.30;;;;;;7297588;19;9266;-69
2023/07/04 09:57:23;;;;;;;;;;;20.40;89.50;;;;;;7301520;19;9417;-67
2023/07/04 09:59:54;;;;;;;;;;;20.50;88.00;;;;;;7301811;19;9290;-67
2023/07/04 10:02:34;;;;;;;;;;;20.60;87.20;;;;;;7298890;19;9520;-67
2023/07/04 10:05:04;;;;;;;;;;;20.50;85.40;;;;;;7295911;19;11007;-67
2023/07/04 10:07:33;;;;;;;;;;;20.50;85.30;;;;;;7293699;19;9662;-69
2023/07/04 10:10:10;;;;;;;;;;;20.70;84.20;;;;;;7303516;19;9474;-71
2023/07/04 10:12:46;;;;;;;;;;;20.90;82.00;;;;;;7302292;19;9323;-71
2023/07/04 10:15:26;;;;;;;;;;;20.90;82.10;;;;;;7301618;19;9253;-71
2023/07/04 10:17:56;;;;;;;;;;;20.90;81.90;;;;;;7302729;19;9688;-71
2023/07/04 10:20:25;;;;;;;;;;;21.10;80.20;;;;;;7309614;19;9361;-71
2023/07/04 10:22:55;;;;;;;;;;;21.20;78.40;;;;;;7301821;19;9607;-71
2023/07/04 10:25:30;;;;;;;;;;;21.30;78.00;;;;;;7303990;19;9547;-71
2023/07/04 10:28:10;;;;;;;;;;;21.30;77.00;;;;;;7302043;19;9253;-71
2023/07/04 10:30:44;;;;;;;;;;;21.20;76.50;;;;;;7301777;19;10624;-71
2023/07/04 10:33:21;;;;;;;;;;;21.30;76.10;;;;;;7302459;19;11513;-70
2023/07/04 10:35:53;;;;;;;;;;;21.20;75.70;;;;;;7303580;19;9312;-70
2023/07/04 10:38:35;;;;;;;;;;;21.30;74.20;;;;;;7300778;19;9467;-73
2023/07/04 10:41:20;;;;;;;;;;;21.40;74.30;;;;;;7323959;19;9311;-68
2023/07/04 10:43:57;;;;;;;;;;;21.40;73.60;;;;;;7301500;19;11708;-68
2023/07/04 10:46:30;;;;;;;;;;;21.40;73.40;;;;;;7300697;19;9360;-68
2023/07/04 10:49:06;;;;;;;;;;;21.50;72.80;;;;;;7299169;19;10465;-70
2023/07/04 10:51:42;;;;;;;;;;;21.60;72.20;;;;;;7301659;19;9210;-73
2023/07/04 10:54:15;;;;;;;;;;;21.70;71.60;;;;;;7299714;19;9643;-70
2023/07/04 10:56:52;;;;;;;;;;;21.80;71.20;;;;;;7302876;19;9271;-70
2023/07/04 10:59:27;;;;;;;;;;;21.60;70.50;;;;;;7300188;19;10435;-70
2023/07/04 11:02:02;;;;;;;;;;;21.70;70.50;;;;;;7301838;19;9301;-72
2023/07/04 11:04:39;;;;;;;;;;;21.60;70.40;;;;;;7215435;19;13841;-69
2023/07/04 11:07:18;;;;;;;;;;;21.40;70.50;;;;;;7301007;19;9847;-71
2023/07/04 11:09:54;;;;;;;;;;;21.30;70.50;;;;;;7302028;19;9336;-71
2023/07/04 11:12:33;;;;;;;;;;;21.30;70.90;;;;;;7299002;19;9592;-72
2023/07/04 11:15:08;;;;;;;;;;;21.20;70.70;;;;;;7300694;19;9650;-72
2023/07/04 11:17:43;;;;;;;;;;;21.10;71.00;;;;;;7295789;19;9306;-73
2023/07/04 11:20:20;;;;;;;;;;;21.30;71.10;;;;;;7309514;19;9405;-71
2023/07/04 11:23:02;;;;;;;;;;;21.50;70.60;;;;;;7313362;19;8944;-73
2023/07/04 11:25:35;;;;;;;;;;;21.70;69.40;;;;;;7301320;19;8997;-72
2023/07/04 11:28:19;;;;;;;;;;;21.90;68.70;;;;;;7292300;19;9436;-70
2023/07/04 11:30:51;;;;;;;;;;;22.00;67.80;;;;;;7294882;19;9447;-70
2023/07/04 11:33:42;;;;;;;;;;;22.00;66.80;;;;;;7294253;19;9492;-70
2023/07/04 11:36:21;;;;;;;;;;;21.80;66.60;;;;;;7298741;19;9591;-70
2023/07/04 11:38:54;;;;;;;;;;;21.80;66.50;;;;;;7301382;19;9260;-70
2023/07/04 11:41:30;;;;;;;;;;;22.00;66.60;;;;;;7298852;19;9269;-70
2023/07/04 11:44:15;;;;;;;;;;;22.20;66.00;;;;;;7297999;19;9537;-70
2023/07/04 11:46:48;;;;;;;;;;;22.40;65.60;;;;;;7299038;19;9468;-70
2023/07/04 11:49:22;;;;;;;;;;;22.50;64.40;;;;;;7298523;19;9431;-70
2023/07/04 11:51:52;;;;;;;;;;;22.60;64.30;;;;;;7300238;19;10194;-70
2023/07/04 11:54:31;;;;;;;;;;;22.40;64.40;;;;;;7295996;19;9526;-70
2023/07/04 11:57:00;;;;;;;;;;;22.30;64.60;;;;;;7296078;19;9507;-70
2023/07/04 11:59:46;;;;;;;;;;;22.40;64.30;;;;;;7297289;19;9288;-70
2023/07/04 12:02:31;;;;;;;;;;;22.50;64.00;;;;;;7299345;19;9422;-70
2023/07/04 12:05:03;;;;;;;;;;;22.50;63.90;;;;;;7306201;19;9254;-70
2023/07/04 12:07:44;;;;;;;;;;;22.50;63.60;;;;;;7304131;19;11718;-70
2023/07/04 12:10:19;;;;;;;;;;;22.60;63.70;;;;;;7306511;19;9340;-70
2023/07/04 12:12:58;;;;;;;;;;;22.50;63.10;;;;;;7304390;19;8944;-70
2023/07/04 12:15:33;;;;;;;;;;;22.50;63.60;;;;;;7307090;19;10095;-70
2023/07/04 12:18:15;;;;;;;;;;;22.50;63.40;;;;;;7304560;19;9215;-70
2023/07/04 12:20:45;;;;;;;;;;;22.50;63.40;;;;;;7308416;19;9271;-70
2023/07/04 12:23:14;;;;;;;;;;;22.40;63.50;;;;;;7303780;19;9287;-70
2023/07/04 12:25:47;;;;;;;;;;;22.40;63.80;;;;;;7305106;19;9517;-70
2023/07/04 12:28:18;;;;;;;;;;;22.50;64.30;;;;;;7306933;19;9616;-70
2023/07/04 12:30:55;;;;;;;;;;;22.60;63.60;;;;;;7306972;19;9298;-70
2023/07/04 12:33:29;;;;;;;;;;;22.80;62.50;;;;;;7307186;19;9398;-70
2023/07/04 12:36:06;;;;;;;;;;;22.90;62.00;;;;;;7304079;19;9474;-70
2023/07/04 12:38:47;;;;;;;;;;;23.00;61.60;;;;;;7304444;19;9269;-70
2023/07/04 12:41:19;;;;;;;;;;;22.90;61.30;;;;;;7306457;19;9274;-70
2023/07/04 12:43:55;;;;;;;;;;;22.60;61.50;;;;;;7306095;19;9377;-70
2023/07/04 12:46:27;;;;;;;;;;;22.30;62.80;;;;;;7305621;19;9963;-70
2023/07/04 12:48:58;;;;;;;;;;;22.10;62.40;;;;;;7307541;19;9728;-70
2023/07/04 12:51:31;;;;;;;;;;;21.90;63.10;;;;;;7306344;19;9274;-70
2023/07/04 12:54:05;;;;;;;;;;;21.90;63.30;;;;;;7305653;19;9230;-70
2023/07/04 12:56:36;;;;;;;;;;;22.10;63.00;;;;;;7305521;19;9376;-70
2023/07/04 12:59:05;;;;;;;;;;;22.20;62.70;;;;;;7306779;19;9408;-70
2023/07/04 13:01:38;;;;;;;;;;;22.30;62.60;;;;;;7307996;19;8944;-70
2023/07/04 13:04:15;;;;;;;;;;;22.50;62.30;;;;;;7305563;19;9503;-71
2023/07/04 13:06:52;;;;;;;;;;;22.60;62.10;;;;;;7303429;19;9275;-70
2023/07/04 13:09:22;;;;;;;;;;;22.50;61.80;;;;;;7304442;19;9240;-70
2023/07/04 13:11:51;;;;;;;;;;;22.40;62.10;;;;;;7305795;19;8944;-72
2023/07/04 13:14:29;;;;;;;;;;;22.30;62.50;;;;;;7303783;19;9254;-70
2023/07/04 13:17:15;;;;;;;;;;;22.20;62.60;;;;;;7303278;19;9276;-70
2023/07/04 13:19:45;;;;;;;;;;;22.20;62.50;;;;;;7304947;19;9927;-72
2023/07/04 13:22:18;;;;;;;;;;;22.30;62.70;;;;;;7301820;19;9237;-70
2023/07/04 13:24:51;;;;;;;;;;;22.50;62.30;;;;;;7301479;19;9564;-74
2023/07/04 13:27:26;;;;;;;;;;;22.60;62.30;;;;;;7302299;19;9283;-71
2023/07/04 13:29:58;;;;;;;;;;;22.70;61.90;;;;;;7304016;19;9260;-71
2023/07/04 13:32:37;;;;;;;;;;;22.80;62.10;;;;;;7303253;19;11221;-70
2023/07/04 13:35:22;;;;;;;;;;;22.70;61.80;;;;;;7306890;19;9353;-75
2023/07/04 13:37:51;;;;;;;;;;;22.50;62.20;;;;;;7299503;19;9273;-73
2023/07/04 13:40:20;;;;;;;;;;;22.50;62.10;;;;;;7322488;19;10231;-75
2023/07/04 13:43:08;;;;;;;;;;;22.60;62.20;;;;;;7324378;19;9338;-73
2023/07/04 13:45:37;;;;;;;;;;;22.40;62.20;;;;;;7324259;19;9249;-73
2023/07/04 13:48:09;;;;;;;;;;;22.40;62.20;;;;;;7319589;19;9705;-73
2023/07/04 13:50:38;;;;;;;;;;;22.40;62.20;;;;;;7325147;19;9169;-73
2023/07/04 13:53:09;;;;;;;;;;;22.50;62.10;;;;;;7323706;19;9551;-73
2023/07/04 13:55:39;;;;;;;;;;;22.40;62.00;;;;;;7323976;19;9528;-72
2023/07/04 13:58:08;;;;;;;;;;;22.30;62.30;;;;;;7323262;19;9170;-72
2023/07/04 14:00:37;;;;;;;;;;;22.10;62.70;;;;;;7324958;19;9242;-72
2023/07/04 14:03:10;;;;;;;;;;;22.10;62.90;;;;;;7323790;19;9164;-72
2023/07/04 14:05:42;;;;;;;;;;;22.20;62.90;;;;;;7322911;19;10071;-72
2023/07/04 14:08:11;;;;;;;;;;;22.40;62.10;;;;;;7323973;19;9235;-72
2023/07/04 14:10:41;;;;;;;;;;;22.30;62.20;;;;;;7322151;19;9248;-72
2023/07/04 14:13:10;;;;;;;;;;;22.50;62.20;;;;;;7323642;19;9590;-70
2023/07/04 14:15:39;;;;;;;;;;;22.60;61.90;;;;;;7323991;19;9227;-69
2023/07/04 14:18:11;;;;;;;;;;;22.70;61.50;;;;;;7321689;19;9261;-70
2023/07/04 14:20:41;;;;;;;;;;;22.70;61.50;;;;;;7322446;19;9119;-70
2023/07/04 14:23:10;;;;;;;;;;;22.70;61.30;;;;;;7324025;19;9987;-70
2023/07/04 14:25:39;;;;;;;;;;;22.70;61.10;;;;;;7322579;19;9262;-71
2023/07/04 14:28:08;;;;;;;;;;;22.80;61.10;;;;;;7323248;19;9264;-71
2023/07/04 14:30:42;;;;;;;;;;;22.80;61.10;;;;;;7323337;19;9170;-71
2023/07/04 14:33:13;;;;;;;;;;;22.70;61.00;;;;;;7324176;19;9190;-71
2023/07/04 14:35:43;;;;;;;;;;;22.60;60.60;;;;;;7323176;19;9502;-71
2023/07/04 14:38:12;;;;;;;;;;;22.50;61.10;;;;;;7322614;19;9158;-71
2023/07/04 14:40:43;;;;;;;;;;;22.30;61.00;;;;;;7321833;19;9218;-71
2023/07/04 14:43:12;;;;;;;;;;;22.40;61.30;;;;;;7324527;19;9221;-71
2023/07/04 14:45:41;;;;;;;;;;;22.40;61.10;;;;;;7321977;19;8948;-71
2023/07/04 14:48:13;;;;;;;;;;;22.60;61.40;;;;;;7324081;19;9231;-70
2023/07/04 14:50:42;;;;;;;;;;;22.60;60.90;;;;;;7324319;19;9328;-70
2023/07/04 14:53:11;;;;;;;;;;;22.70;61.00;;;;;;7324296;19;9226;-70
2023/07/04 14:55:40;;;;;;;;;;;22.60;60.50;;;;;;7320467;19;9218;-70
2023/07/04 14:58:09;;;;;;;;;;;22.40;60.80;;;;;;7320530;19;8944;-71